Time;durP1;ratioP1;P1;durP2;ratioP2;P2;SDS_P1;SDS_P2;PMS_P1;PMS_P2;Temp;Humidity;BMP_temperature;BMP_pressure;BME280_temperature;BME280_humidity;BME280_pressure;Samples;Min_cycle;Max_cycle;Signal;HPM_P1;HPM_P2
2023/04/13 00:00:59;;;;;;;2.00;0.80;;;12.90;89.30;;;;;;5082154;28;20505;-51
2023/04/13 00:03:29;;;;;;;1.40;0.60;;;13.00;89.70;;;;;;5074144;28;20987;-48
2023/04/13 00:05:58;;;;;;;1.70;0.93;;;12.90;90.00;;;;;;5062883;28;20470;-48
2023/04/13 00:08:29;;;;;;;1.63;0.93;;;12.90;89.50;;;;;;5041297;28;20476;-50
2023/04/13 00:10:58;;;;;;;1.67;0.80;;;13.00;89.90;;;;;;5044954;28;20978;-49
2023/04/13 00:13:27;;;;;;;2.07;0.70;;;12.90;89.10;;;;;;5053067;28;20550;-49
2023/04/13 00:15:59;;;;;;;1.53;0.60;;;12.90;88.90;;;;;;5060433;28;20994;-50
2023/04/13 00:18:28;;;;;;;1.60;0.70;;;12.90;89.00;;;;;;5047968;28;20622;-49
2023/04/13 00:20:58;;;;;;;1.53;0.70;;;12.90;89.20;;;;;;5065327;28;20433;-50
2023/04/13 00:23:27;;;;;;;1.63;0.90;;;12.90;89.30;;;;;;5060871;28;20460;-51
2023/04/13 00:25:56;;;;;;;1.93;0.67;;;12.90;89.70;;;;;;5061589;28;20447;-50
2023/04/13 00:28:24;;;;;;;1.50;0.80;;;12.90;88.00;;;;;;5057252;28;20530;-50
2023/04/13 00:30:53;;;;;;;1.97;0.90;;;12.90;89.10;;;;;;5061801;28;20535;-49
2023/04/13 00:33:23;;;;;;;1.10;0.57;;;12.90;89.70;;;;;;5026789;28;20514;-51
2023/04/13 00:35:52;;;;;;;1.87;1.20;;;12.90;89.40;;;;;;5038650;28;20556;-50
2023/04/13 00:38:22;;;;;;;1.20;0.60;;;12.90;90.10;;;;;;5029106;28;20441;-49
2023/04/13 00:40:54;;;;;;;2.50;1.00;;;12.90;88.90;;;;;;5039301;28;20445;-50
2023/04/13 00:43:24;;;;;;;1.20;0.60;;;12.80;88.40;;;;;;5025746;28;20483;-50
2023/04/13 00:45:53;;;;;;;1.50;0.80;;;12.80;89.90;;;;;;5057118;28;20452;-49
2023/04/13 00:48:23;;;;;;;1.50;0.70;;;12.90;89.20;;;;;;5058580;28;20838;-49
2023/04/13 00:50:52;;;;;;;3.10;0.70;;;12.90;88.60;;;;;;5039348;28;20534;-49
2023/04/13 00:53:21;;;;;;;1.57;0.77;;;12.90;89.40;;;;;;5044946;28;20981;-48
2023/04/13 00:55:51;;;;;;;1.50;0.80;;;12.80;89.60;;;;;;5038922;28;20526;-49
2023/04/13 00:58:20;;;;;;;1.63;1.00;;;12.80;89.10;;;;;;5041956;28;20447;-49
2023/04/13 01:00:48;;;;;;;2.17;0.80;;;12.80;87.80;;;;;;5027501;28;20467;-50
2023/04/13 01:03:17;;;;;;;2.70;0.80;;;12.80;88.90;;;;;;5042597;28;20499;-49
2023/04/13 01:05:54;;;;;;;1.30;0.73;;;12.80;88.20;;;;;;5028042;28;20458;-50
2023/04/13 01:08:32;;;;;;;1.60;1.00;;;12.80;89.40;;;;;;5038178;28;20879;-50
2023/04/13 01:11:05;;;;;;;1.13;0.50;;;12.80;89.60;;;;;;5044196;28;20431;-50
2023/04/13 01:13:40;;;;;;;3.53;0.80;;;12.80;89.60;;;;;;5035585;28;20967;-50
2023/04/13 01:16:17;;;;;;;1.57;0.60;;;12.80;89.40;;;;;;5028833;28;20882;-49
2023/04/13 01:18:50;;;;;;;1.40;0.50;;;12.80;89.90;;;;;;5030208;28;20462;-50
2023/04/13 01:21:24;;;;;;;1.07;0.47;;;12.80;90.00;;;;;;5081775;28;20450;-50
2023/04/13 01:24:06;;;;;;;1.77;0.70;;;12.80;90.00;;;;;;5074677;28;20450;-50
2023/04/13 01:26:50;;;;;;;1.77;0.70;;;12.80;90.10;;;;;;5079314;28;21026;-50
2023/04/13 01:29:20;;;;;;;1.10;0.57;;;12.80;90.00;;;;;;5058609;28;20992;-49
2023/04/13 01:31:49;;;;;;;3.73;0.60;;;12.80;90.10;;;;;;5066213;28;20961;-50
2023/04/13 01:34:18;;;;;;;1.77;0.60;;;12.80;89.30;;;;;;5047365;28;20479;-49
2023/04/13 01:36:47;;;;;;;1.27;0.50;;;12.80;88.90;;;;;;5028632;28;20463;-49
2023/04/13 01:39:21;;;;;;;1.30;0.60;;;12.80;87.70;;;;;;5049758;28;20500;-49
2023/04/13 01:41:59;;;;;;;1.93;0.90;;;12.80;88.90;;;;;;5056042;28;20459;-49
2023/04/13 01:44:33;;;;;;;1.10;0.60;;;12.80;89.50;;;;;;5052720;28;20468;-50
2023/04/13 01:47:14;;;;;;;1.50;0.70;;;12.70;89.70;;;;;;5060274;28;20485;-48
2023/04/13 01:50:25;;;;;;;1.10;0.50;;;12.70;89.10;;;;;;5013267;28;20467;-51
2023/04/13 01:53:06;;;;;;;1.80;0.63;;;12.80;88.80;;;;;;5038961;28;21006;-49
2023/04/13 01:55:40;;;;;;;1.77;0.50;;;12.70;89.30;;;;;;5061571;28;20456;-49
2023/04/13 01:58:13;;;;;;;1.40;0.60;;;12.70;89.00;;;;;;5040203;28;20815;-50
2023/04/13 02:00:50;;;;;;;1.50;0.97;;;12.70;88.40;;;;;;5026698;28;20548;-49
2023/04/13 02:03:21;;;;;;;1.67;0.70;;;12.70;89.20;;;;;;5031243;28;20471;-49
2023/04/13 02:05:50;;;;;;;1.07;0.50;;;12.70;89.20;;;;;;5055627;28;20448;-50
2023/04/13 02:08:19;;;;;;;4.90;0.90;;;12.70;88.90;;;;;;5036674;28;20463;-50
2023/04/13 02:10:49;;;;;;;2.07;0.53;;;12.70;89.50;;;;;;5027955;28;20824;-49
2023/04/13 02:13:17;;;;;;;1.60;0.53;;;12.70;88.00;;;;;;5023913;28;20479;-49
2023/04/13 02:15:47;;;;;;;1.20;0.50;;;12.70;89.30;;;;;;5027598;28;20449;-48
2023/04/13 02:18:17;;;;;;;1.23;0.50;;;12.70;89.00;;;;;;5043509;28;20525;-50
2023/04/13 02:20:46;;;;;;;1.30;0.50;;;12.70;89.90;;;;;;5032230;28;20539;-49
2023/04/13 02:23:14;;;;;;;3.03;0.73;;;12.70;89.70;;;;;;5029756;28;20451;-50
2023/04/13 02:25:45;;;;;;;1.30;0.50;;;12.70;88.90;;;;;;5044667;28;20534;-49
2023/04/13 02:28:17;;;;;;;2.07;0.70;;;12.70;88.50;;;;;;5044248;28;20447;-49
2023/04/13 02:30:47;;;;;;;1.73;0.70;;;12.70;88.80;;;;;;5050758;28;20459;-50
2023/04/13 02:33:18;;;;;;;1.10;0.50;;;12.60;89.20;;;;;;5040680;28;20486;-50
2023/04/13 02:35:47;;;;;;;2.47;0.73;;;12.70;89.30;;;;;;5027016;28;20450;-50
2023/04/13 02:38:17;;;;;;;2.13;0.90;;;12.60;88.30;;;;;;5045766;28;20467;-50
2023/04/13 02:40:54;;;;;;;1.30;0.70;;;12.60;88.80;;;;;;5039745;28;20710;-50
2023/04/13 02:43:25;;;;;;;1.47;0.40;;;12.60;89.60;;;;;;5030886;28;20500;-50
2023/04/13 02:45:54;;;;;;;1.30;0.70;;;12.60;88.60;;;;;;5025866;28;20434;-50
2023/04/13 02:48:27;;;;;;;1.57;0.70;;;12.60;89.30;;;;;;5046057;28;20492;-49
2023/04/13 02:50:57;;;;;;;1.77;0.70;;;12.60;89.60;;;;;;5047509;28;20932;-49
2023/04/13 02:53:31;;;;;;;1.33;0.60;;;12.60;88.60;;;;;;5030794;28;20815;-49
2023/04/13 02:56:05;;;;;;;1.60;0.93;;;12.60;88.40;;;;;;5045114;28;20450;-50
2023/04/13 02:58:34;;;;;;;1.90;0.60;;;12.60;89.20;;;;;;5067884;28;20561;-49
2023/04/13 03:01:07;;;;;;;1.10;0.40;;;12.60;88.50;;;;;;5083516;28;20458;-50
2023/04/13 03:03:37;;;;;;;1.10;0.50;;;12.60;89.10;;;;;;5064944;28;20861;-49
2023/04/13 03:06:07;;;;;;;2.13;0.53;;;12.60;89.10;;;;;;5084595;28;20467;-49
2023/04/13 03:08:50;;;;;;;1.10;0.50;;;12.60;88.40;;;;;;5085495;28;21030;-50
2023/04/13 03:11:22;;;;;;;1.40;0.60;;;12.60;89.60;;;;;;5061645;28;21016;-49
2023/04/13 03:14:11;;;;;;;1.33;0.60;;;12.60;88.90;;;;;;5055963;28;20634;-48
2023/04/13 03:16:41;;;;;;;2.53;0.60;;;12.50;89.60;;;;;;5066118;28;20982;-50
2023/04/13 03:19:13;;;;;;;1.10;0.57;;;12.60;89.60;;;;;;5065157;28;20503;-49
2023/04/13 03:21:45;;;;;;;2.50;0.70;;;12.60;89.60;;;;;;5055839;28;20466;-51
2023/04/13 03:24:18;;;;;;;1.17;0.40;;;12.50;88.50;;;;;;5067544;28;20454;-50
2023/04/13 03:26:48;;;;;;;1.17;0.50;;;12.60;89.00;;;;;;5050006;28;20447;-49
2023/04/13 03:29:26;;;;;;;1.10;0.60;;;12.50;89.70;;;;;;5068259;28;20446;-49
2023/04/13 03:31:54;;;;;;;2.27;0.70;;;12.50;89.60;;;;;;5066902;28;20791;-49
2023/04/13 03:34:25;;;;;;;1.33;0.57;;;12.50;89.40;;;;;;5052552;28;20982;-50
2023/04/13 03:36:54;;;;;;;1.10;0.57;;;12.50;89.10;;;;;;5024336;28;20452;-50
2023/04/13 03:39:22;;;;;;;1.17;0.50;;;12.50;89.50;;;;;;5040864;28;20446;-49
2023/04/13 03:41:51;;;;;;;1.97;0.73;;;12.50;89.70;;;;;;5079353;28;20463;-51
2023/04/13 03:44:20;;;;;;;1.30;0.50;;;12.50;90.00;;;;;;5039097;28;20495;-49
2023/04/13 03:46:49;;;;;;;1.17;0.60;;;12.50;89.70;;;;;;5039486;28;20459;-48
2023/04/13 03:49:26;;;;;;;1.40;0.50;;;12.50;89.90;;;;;;5038110;28;20474;-51
2023/04/13 03:51:55;;;;;;;1.10;0.50;;;12.50;89.90;;;;;;5041674;28;20468;-50
2023/04/13 03:54:24;;;;;;;2.20;0.60;;;12.50;89.90;;;;;;5029672;28;20532;-49
2023/04/13 03:56:53;;;;;;;1.20;0.50;;;12.50;89.80;;;;;;5026313;28;20446;-49
2023/04/13 03:59:22;;;;;;;2.03;0.50;;;12.50;90.00;;;;;;5044126;28;20487;-50
2023/04/13 04:01:51;;;;;;;2.00;0.80;;;12.50;90.20;;;;;;5045951;28;20529;-49
2023/04/13 04:04:20;;;;;;;1.30;0.60;;;12.50;89.80;;;;;;5043994;28;20495;-49
2023/04/13 04:06:53;;;;;;;1.20;0.50;;;12.50;89.40;;;;;;5024506;28;20451;-49
2023/04/13 04:09:23;;;;;;;1.43;0.60;;;12.40;89.90;;;;;;5056631;28;20469;-50
2023/04/13 04:11:52;;;;;;;1.30;0.50;;;12.40;89.90;;;;;;5043242;28;20831;-47
2023/04/13 04:14:28;;;;;;;1.40;0.50;;;12.40;89.90;;;;;;5066756;28;20648;-50
2023/04/13 04:17:04;;;;;;;1.90;0.80;;;12.40;89.90;;;;;;5062517;28;20443;-50
2023/04/13 04:19:33;;;;;;;1.20;0.40;;;12.40;89.80;;;;;;5064819;28;20485;-50
2023/04/13 04:22:04;;;;;;;1.50;0.70;;;12.40;90.00;;;;;;5064790;28;20466;-49
2023/04/13 04:24:36;;;;;;;1.90;0.60;;;12.40;90.00;;;;;;5058478;28;20483;-49
2023/04/13 04:27:06;;;;;;;0.90;0.40;;;12.40;90.10;;;;;;5056042;28;20451;-48
2023/04/13 04:29:35;;;;;;;2.00;0.50;;;12.40;90.30;;;;;;5064062;28;20480;-49
2023/04/13 04:32:14;;;;;;;2.57;0.60;;;12.40;90.20;;;;;;5065073;28;20519;-50
2023/04/13 04:34:45;;;;;;;1.30;0.70;;;12.40;90.10;;;;;;5063540;28;20531;-50
2023/04/13 04:37:20;;;;;;;0.90;0.30;;;12.40;90.20;;;;;;5054055;28;20430;-51
2023/04/13 04:40:07;;;;;;;1.30;0.60;;;12.40;90.30;;;;;;5043416;28;20528;-50
2023/04/13 04:42:36;;;;;;;1.50;0.60;;;12.40;90.20;;;;;;5040897;28;20999;-50
2023/04/13 04:45:10;;;;;;;2.13;0.57;;;12.40;90.30;;;;;;5057847;28;20495;-50
2023/04/13 04:47:43;;;;;;;1.10;0.40;;;12.40;90.30;;;;;;5065058;28;20453;-50
2023/04/13 04:50:19;;;;;;;1.10;0.40;;;12.40;90.10;;;;;;5062315;28;21015;-49
2023/04/13 04:52:54;;;;;;;1.00;0.47;;;12.30;90.30;;;;;;5045089;28;20974;-49
2023/04/13 04:55:25;;;;;;;1.10;0.40;;;12.30;90.30;;;;;;5041914;28;20525;-50
2023/04/13 04:57:54;;;;;;;1.10;0.53;;;12.30;90.30;;;;;;5066870;28;20852;-49
2023/04/13 05:00:25;;;;;;;1.00;0.50;;;12.30;90.20;;;;;;5041632;28;20891;-48
2023/04/13 05:03:10;;;;;;;1.10;0.57;;;12.30;90.20;;;;;;5040847;28;20838;-51
2023/04/13 05:05:43;;;;;;;1.93;0.70;;;12.30;90.30;;;;;;5029070;28;20961;-49
2023/04/13 05:08:18;;;;;;;1.20;0.50;;;12.30;90.20;;;;;;5034688;28;20442;-49
2023/04/13 05:10:49;;;;;;;1.23;0.50;;;12.30;90.10;;;;;;5045563;28;20443;-50
2023/04/13 05:13:19;;;;;;;1.00;0.40;;;12.30;90.20;;;;;;5039179;28;20571;-50
2023/04/13 05:16:00;;;;;;;2.40;0.60;;;12.30;90.20;;;;;;5024004;28;20457;-49
2023/04/13 05:18:31;;;;;;;1.53;0.40;;;12.30;90.30;;;;;;5044884;28;20481;-50
2023/04/13 05:21:00;;;;;;;1.10;0.50;;;12.30;90.10;;;;;;5046085;28;20448;-50
2023/04/13 05:23:30;;;;;;;1.83;0.40;;;12.30;90.30;;;;;;5045521;28;20443;-49
2023/04/13 05:26:07;;;;;;;1.47;0.70;;;12.30;90.30;;;;;;5044963;28;20445;-49
2023/04/13 05:28:35;;;;;;;1.13;0.50;;;12.30;90.40;;;;;;5025985;28;20583;-51
2023/04/13 05:31:05;;;;;;;1.33;0.60;;;12.30;90.20;;;;;;5030277;28;20505;-48
2023/04/13 05:33:37;;;;;;;1.23;0.60;;;12.30;90.50;;;;;;5044832;28;20536;-50
2023/04/13 05:36:07;;;;;;;1.60;0.70;;;12.20;90.10;;;;;;5045765;28;20440;-49
2023/04/13 05:38:39;;;;;;;0.90;0.40;;;12.20;90.20;;;;;;5043686;28;20466;-49
2023/04/13 05:41:09;;;;;;;1.00;0.50;;;12.30;90.40;;;;;;5042502;28;20438;-48
2023/04/13 05:43:39;;;;;;;3.00;0.40;;;12.20;90.40;;;;;;5039040;28;20952;-50
2023/04/13 05:46:11;;;;;;;1.17;0.53;;;12.20;90.40;;;;;;5045834;28;20463;-49
2023/04/13 05:48:40;;;;;;;1.47;0.40;;;12.20;90.40;;;;;;5032973;28;20467;-48
2023/04/13 05:51:11;;;;;;;1.00;0.53;;;12.20;90.50;;;;;;5029228;28;20484;-49
2023/04/13 05:53:42;;;;;;;0.90;0.40;;;12.20;90.40;;;;;;5035349;28;20446;-49
2023/04/13 05:56:11;;;;;;;1.30;0.50;;;12.20;90.30;;;;;;5042434;28;20451;-48
2023/04/13 05:58:40;;;;;;;1.03;0.40;;;12.20;90.40;;;;;;5028277;28;20475;-49
2023/04/13 06:01:18;;;;;;;0.93;0.50;;;12.20;90.20;;;;;;5039103;28;20935;-49
2023/04/13 06:03:47;;;;;;;1.27;0.40;;;12.20;90.30;;;;;;5060754;28;20491;-49
2023/04/13 06:06:17;;;;;;;1.00;0.37;;;12.20;90.30;;;;;;5046996;28;20438;-49
2023/04/13 06:08:47;;;;;;;1.00;0.40;;;12.20;90.50;;;;;;5044634;28;20655;-49
2023/04/13 06:11:17;;;;;;;2.00;0.63;;;12.10;90.30;;;;;;5065148;28;20524;-49
2023/04/13 06:13:46;;;;;;;1.57;1.03;;;12.10;90.60;;;;;;5084165;28;20538;-49
2023/04/13 06:16:14;;;;;;;0.87;0.40;;;12.20;90.50;;;;;;5079547;28;20423;-49
2023/04/13 06:18:43;;;;;;;2.80;1.30;;;12.20;90.60;;;;;;5068362;28;20473;-47
2023/04/13 06:21:12;;;;;;;1.43;0.60;;;12.10;90.50;;;;;;5064287;28;20448;-48
2023/04/13 06:23:41;;;;;;;1.30;0.60;;;12.10;90.50;;;;;;5066494;28;20456;-48
2023/04/13 06:26:21;;;;;;;1.07;0.50;;;12.20;90.70;;;;;;5068827;28;20445;-49
2023/04/13 06:28:55;;;;;;;0.90;0.50;;;12.10;90.60;;;;;;5045885;28;20437;-49
2023/04/13 06:31:26;;;;;;;0.90;0.47;;;12.20;90.70;;;;;;5064949;28;20458;-49
2023/04/13 06:33:59;;;;;;;1.47;0.60;;;12.10;90.80;;;;;;5059517;28;20450;-50
2023/04/13 06:36:32;;;;;;;1.17;0.83;;;12.10;90.70;;;;;;5064461;28;20451;-50
2023/04/13 06:39:03;;;;;;;1.30;0.60;;;12.10;90.60;;;;;;5053392;28;20527;-49
2023/04/13 06:41:35;;;;;;;1.13;0.50;;;12.20;90.80;;;;;;5044222;28;20837;-50
2023/04/13 06:44:42;;;;;;;0.97;0.47;;;12.10;90.60;;;;;;5026126;28;20467;-50
2023/04/13 06:47:11;;;;;;;1.33;0.50;;;12.10;90.60;;;;;;5030089;28;20483;-49
2023/04/13 06:49:43;;;;;;;1.33;0.50;;;12.10;90.60;;;;;;5059918;28;20460;-49
2023/04/13 06:52:13;;;;;;;1.10;0.50;;;12.10;90.70;;;;;;5084571;28;20799;-49
2023/04/13 06:54:42;;;;;;;1.03;0.40;;;12.10;90.60;;;;;;5035863;28;20513;-49
2023/04/13 06:57:25;;;;;;;1.10;0.50;;;12.10;91.00;;;;;;5062679;28;20455;-49
2023/04/13 06:59:57;;;;;;;0.90;0.40;;;12.20;90.80;;;;;;5061725;28;20483;-50
2023/04/13 07:02:26;;;;;;;1.40;0.70;;;12.20;90.90;;;;;;5057356;28;20524;-49
2023/04/13 07:04:57;;;;;;;1.20;1.00;;;12.10;90.90;;;;;;5062777;28;20476;-49
2023/04/13 07:07:27;;;;;;;1.30;0.40;;;12.20;91.00;;;;;;5032107;28;20440;-50
2023/04/13 07:09:57;;;;;;;1.33;0.80;;;12.20;91.00;;;;;;5047972;28;20467;-51
2023/04/13 07:12:32;;;;;;;1.43;0.60;;;12.20;91.00;;;;;;5026963;28;20499;-49
2023/04/13 07:15:00;;;;;;;1.30;0.50;;;12.20;91.00;;;;;;5059468;28;20454;-50
2023/04/13 07:17:32;;;;;;;1.00;0.40;;;12.20;91.00;;;;;;5050580;28;20446;-49
2023/04/13 07:20:02;;;;;;;1.20;0.47;;;12.20;91.00;;;;;;5067439;28;20498;-52
2023/04/13 07:22:33;;;;;;;1.13;0.47;;;12.20;91.00;;;;;;5034188;28;20493;-51
2023/04/13 07:25:04;;;;;;;1.33;0.60;;;12.20;91.00;;;;;;5030503;28;20482;-49
2023/04/13 07:27:34;;;;;;;1.13;0.50;;;12.10;90.90;;;;;;5037929;28;20458;-50
2023/04/13 07:30:04;;;;;;;2.27;0.87;;;12.20;90.90;;;;;;5039496;28;20492;-49
2023/04/13 07:32:39;;;;;;;1.43;0.60;;;12.20;90.80;;;;;;5032829;28;20483;-48
2023/04/13 07:35:10;;;;;;;1.60;0.80;;;12.10;90.70;;;;;;5038473;28;20491;-50
2023/04/13 07:37:41;;;;;;;1.73;0.83;;;12.10;90.70;;;;;;5028804;28;20450;-50
2023/04/13 07:40:11;;;;;;;1.10;0.50;;;12.10;90.70;;;;;;5042473;28;21027;-49
2023/04/13 07:42:46;;;;;;;1.97;0.77;;;12.10;90.80;;;;;;5062998;28;20458;-49
2023/04/13 07:45:16;;;;;;;2.60;0.87;;;12.10;90.80;;;;;;5026744;28;20469;-48
2023/04/13 07:47:46;;;;;;;1.40;0.60;;;12.10;90.80;;;;;;5063147;28;20540;-49
2023/04/13 07:50:15;;;;;;;1.50;0.60;;;12.10;90.90;;;;;;5044875;28;20466;-49
2023/04/13 07:52:45;;;;;;;1.00;0.50;;;12.10;90.90;;;;;;5044357;28;20462;-50
2023/04/13 07:55:15;;;;;;;1.40;0.70;;;12.10;90.90;;;;;;5058952;28;20511;-50
2023/04/13 07:57:49;;;;;;;1.87;0.67;;;12.10;90.90;;;;;;5030354;28;20449;-49
2023/04/13 08:00:20;;;;;;;0.93;0.40;;;12.00;91.00;;;;;;5050940;28;20488;-49
2023/04/13 08:02:54;;;;;;;2.33;0.80;;;12.10;91.00;;;;;;5058243;28;20849;-49
2023/04/13 08:05:24;;;;;;;2.27;0.70;;;12.10;91.10;;;;;;5067613;28;20469;-49
2023/04/13 08:07:53;;;;;;;3.10;1.00;;;12.10;91.10;;;;;;5062644;28;20446;-49
2023/04/13 08:10:23;;;;;;;3.40;0.70;;;12.00;91.00;;;;;;5053280;28;20480;-48
2023/04/13 08:12:54;;;;;;;1.53;0.67;;;12.00;91.00;;;;;;5055425;28;20481;-49
2023/04/13 08:15:25;;;;;;;1.73;0.73;;;12.00;91.00;;;;;;5032276;28;20470;-49
2023/04/13 08:17:54;;;;;;;1.37;0.67;;;12.00;91.00;;;;;;5023644;28;20530;-50
2023/04/13 08:20:24;;;;;;;2.70;0.90;;;12.00;91.00;;;;;;5057741;28;21002;-48
2023/04/13 08:22:55;;;;;;;3.83;0.90;;;12.00;91.60;;;;;;5077443;28;20456;-49
2023/04/13 08:25:23;;;;;;;1.70;0.80;;;12.00;91.00;;;;;;5060915;28;20488;-49
2023/04/13 08:27:54;;;;;;;2.30;0.50;;;12.00;91.10;;;;;;5021970;28;20447;-49
2023/04/13 08:30:23;;;;;;;3.50;0.70;;;12.00;91.10;;;;;;5062971;28;20471;-49
2023/04/13 08:32:58;;;;;;;1.53;0.70;;;12.00;91.00;;;;;;5024909;28;20763;-49
2023/04/13 08:35:27;;;;;;;2.80;1.00;;;12.00;91.10;;;;;;5061329;28;20453;-49
2023/04/13 08:37:58;;;;;;;3.27;0.90;;;12.00;91.00;;;;;;5032573;28;20810;-49
2023/04/13 08:40:28;;;;;;;2.17;1.10;;;12.00;91.00;;;;;;5060122;28;20506;-49
2023/04/13 08:43:00;;;;;;;2.10;0.70;;;12.00;91.10;;;;;;5057361;28;20826;-50
2023/04/13 08:45:33;;;;;;;2.50;0.77;;;12.00;91.20;;;;;;5048150;28;20491;-48
2023/04/13 08:48:02;;;;;;;2.83;0.70;;;12.00;91.20;;;;;;5037688;28;20451;-50
2023/04/13 08:50:36;;;;;;;3.13;0.83;;;12.00;91.30;;;;;;5060404;28;20478;-49
2023/04/13 08:53:05;;;;;;;2.60;1.00;;;12.00;91.40;;;;;;5061751;28;20516;-48
2023/04/13 08:55:33;;;;;;;2.07;0.80;;;12.00;91.50;;;;;;5061839;28;20480;-48
2023/04/13 08:58:04;;;;;;;3.27;0.67;;;12.00;91.50;;;;;;5060126;28;20447;-50
2023/04/13 09:00:35;;;;;;;1.80;0.50;;;12.00;91.50;;;;;;5063899;28;20477;-50
2023/04/13 09:03:09;;;;;;;1.60;0.93;;;12.00;91.50;;;;;;5057423;28;20473;-51
2023/04/13 09:05:47;;;;;;;2.33;0.70;;;12.00;91.50;;;;;;5045194;28;20569;-50
2023/04/13 09:08:17;;;;;;;1.50;0.80;;;12.00;91.50;;;;;;5062412;28;20940;-49
2023/04/13 09:10:48;;;;;;;2.87;0.80;;;12.00;91.50;;;;;;5045468;28;20478;-49
2023/04/13 09:13:18;;;;;;;2.00;1.00;;;12.00;91.40;;;;;;5042660;28;20830;-49
2023/04/13 09:15:47;;;;;;;4.20;0.90;;;12.00;91.40;;;;;;5029605;28;20466;-50
2023/04/13 09:18:35;;;;;;;3.40;0.97;;;12.00;91.40;;;;;;5038453;28;20471;-49
2023/04/13 09:21:09;;;;;;;4.03;0.97;;;12.00;91.40;;;;;;5045166;28;20480;-49
2023/04/13 09:23:38;;;;;;;2.10;1.00;;;12.00;91.30;;;;;;5025748;28;20523;-50
2023/04/13 09:26:08;;;;;;;1.20;0.73;;;12.00;91.30;;;;;;5044513;28;20451;-50
2023/04/13 09:28:48;;;;;;;4.10;1.60;;;12.00;91.30;;;;;;5027953;28;20446;-50
2023/04/13 09:31:17;;;;;;;2.73;0.90;;;12.00;91.30;;;;;;5041953;28;20503;-49
2023/04/13 09:33:47;;;;;;;2.77;1.33;;;12.00;91.40;;;;;;5023253;28;20463;-48
2023/04/13 09:36:17;;;;;;;2.50;0.90;;;12.00;91.40;;;;;;5045532;28;20493;-50
2023/04/13 09:38:51;;;;;;;3.70;1.50;;;12.00;91.40;;;;;;5028688;28;21024;-49
2023/04/13 09:41:29;;;;;;;2.40;0.90;;;12.00;91.50;;;;;;5028461;28;21184;-49
2023/04/13 09:44:00;;;;;;;2.40;0.80;;;12.00;91.50;;;;;;5024137;28;21129;-50
2023/04/13 09:46:28;;;;;;;2.00;1.00;;;11.90;91.50;;;;;;5042289;28;20824;-48
2023/04/13 09:48:59;;;;;;;1.83;0.73;;;11.90;91.60;;;;;;5019948;28;20455;-49
2023/04/13 09:51:36;;;;;;;1.53;0.60;;;11.90;91.50;;;;;;5031273;28;20450;-49
2023/04/13 09:54:06;;;;;;;1.83;1.10;;;11.90;91.60;;;;;;5032890;28;20495;-50
2023/04/13 09:56:45;;;;;;;1.93;1.10;;;12.00;91.50;;;;;;5046905;28;20452;-49
2023/04/13 09:59:18;;;;;;;2.70;0.90;;;11.90;91.50;;;;;;5028873;28;20488;-51
2023/04/13 10:01:47;;;;;;;2.63;0.90;;;12.00;91.50;;;;;;5031611;28;20492;-49
2023/04/13 10:04:16;;;;;;;2.80;0.83;;;11.90;91.30;;;;;;5032382;28;20429;-49
2023/04/13 10:06:46;;;;;;;3.63;1.47;;;12.00;91.50;;;;;;5033209;28;20465;-49
2023/04/13 10:09:15;;;;;;;2.90;1.17;;;12.00;91.40;;;;;;5033295;28;20930;-50
2023/04/13 10:11:48;;;;;;;2.60;0.97;;;12.00;91.40;;;;;;5031704;28;20520;-49
2023/04/13 10:14:24;;;;;;;2.17;0.90;;;12.00;91.50;;;;;;5069003;28;20835;-50
2023/04/13 10:17:22;;;;;;;2.73;1.63;;;12.00;91.50;;;;;;5043081;28;20438;-50
2023/04/13 10:19:53;;;;;;;2.00;1.17;;;12.00;91.50;;;;;;5038423;28;20470;-50
2023/04/13 10:22:23;;;;;;;1.20;0.70;;;11.90;91.40;;;;;;5063422;28;20564;-51
2023/04/13 10:24:52;;;;;;;1.97;1.00;;;11.90;91.40;;;;;;5039049;28;20460;-48
2023/04/13 10:27:22;;;;;;;2.50;1.13;;;12.00;91.50;;;;;;5085265;28;21005;-50
2023/04/13 10:29:53;;;;;;;2.10;1.23;;;12.00;91.50;;;;;;5032057;28;20471;-49
2023/04/13 10:32:23;;;;;;;3.50;1.70;;;12.00;91.40;;;;;;5063017;28;20467;-51
2023/04/13 10:34:53;;;;;;;2.40;1.47;;;12.00;91.20;;;;;;5023246;28;20473;-49
2023/04/13 10:37:23;;;;;;;2.70;1.40;;;12.00;91.20;;;;;;5042987;28;20565;-50
2023/04/13 10:40:04;;;;;;;4.83;1.80;;;12.00;91.30;;;;;;5038848;28;20486;-50
2023/04/13 10:42:45;;;;;;;4.60;1.33;;;12.00;91.20;;;;;;5041283;28;20482;-50
2023/04/13 10:45:20;;;;;;;7.20;2.63;;;12.00;91.20;;;;;;5047678;28;20501;-51
2023/04/13 10:47:49;;;;;;;5.10;2.40;;;12.00;90.30;;;;;;5030220;28;20798;-49
2023/04/13 10:50:19;;;;;;;4.60;2.00;;;12.00;90.30;;;;;;5079965;28;20227;-50
2023/04/13 10:52:59;;;;;;;4.10;1.63;;;12.00;90.40;;;;;;5066995;28;21003;-49
2023/04/13 10:55:29;;;;;;;2.53;1.20;;;12.00;90.60;;;;;;5062965;28;20574;-48
2023/04/13 10:58:00;;;;;;;4.20;1.73;;;12.00;90.60;;;;;;5049245;28;20953;-49
2023/04/13 11:00:31;;;;;;;3.37;1.67;;;12.00;90.60;;;;;;5045939;28;20998;-49
2023/04/13 11:03:15;;;;;;;4.00;1.47;;;12.00;90.60;;;;;;5055383;28;20908;-50
2023/04/13 11:05:46;;;;;;;3.20;2.17;;;12.00;90.80;;;;;;5034185;28;21521;-49
2023/04/13 11:08:19;;;;;;;5.53;1.97;;;12.00;90.80;;;;;;5023267;28;20466;-50
2023/04/13 11:10:52;;;;;;;2.50;1.13;;;12.00;90.70;;;;;;5042742;28;20441;-50
2023/04/13 11:13:23;;;;;;;5.40;2.27;;;12.00;91.30;;;;;;5030079;28;20468;-50
2023/04/13 11:16:01;;;;;;;5.97;2.13;;;11.90;88.50;;;;;;5026754;28;20441;-50
2023/04/13 11:18:31;;;;;;;4.40;1.90;;;11.90;89.20;;;;;;5047296;28;20826;-49
2023/04/13 11:21:01;;;;;;;5.67;1.80;;;11.90;89.40;;;;;;5061148;28;20778;-49
2023/04/13 11:23:36;;;;;;;3.27;1.57;;;11.90;89.50;;;;;;5064003;28;20461;-50
2023/04/13 11:26:05;;;;;;;3.37;2.27;;;11.90;90.00;;;;;;5061245;28;20439;-48
2023/04/13 11:28:41;;;;;;;4.40;1.80;;;11.90;90.00;;;;;;5047428;28;20434;-49
2023/04/13 11:31:11;;;;;;;3.70;2.40;;;12.00;90.10;;;;;;5047863;28;20445;-50
2023/04/13 11:33:42;;;;;;;5.10;1.87;;;11.90;90.20;;;;;;5051574;28;20467;-50
2023/04/13 11:36:11;;;;;;;5.30;1.63;;;11.90;90.10;;;;;;5063513;28;20450;-50
2023/04/13 11:38:40;;;;;;;4.60;1.83;;;11.90;90.40;;;;;;5030734;28;20581;-50
2023/04/13 11:41:10;;;;;;;6.70;1.70;;;12.00;90.40;;;;;;5037518;28;20443;-48
2023/04/13 11:43:47;;;;;;;3.17;2.13;;;12.00;90.20;;;;;;5031853;28;20426;-48
2023/04/13 11:46:23;;;;;;;3.03;1.63;;;12.00;90.30;;;;;;5047666;28;20456;-48
2023/04/13 11:48:55;;;;;;;2.87;1.40;;;12.00;90.30;;;;;;5040270;28;21106;-49
2023/04/13 11:51:25;;;;;;;6.30;1.77;;;12.00;90.30;;;;;;5030823;28;20566;-48
2023/04/13 11:53:55;;;;;;;4.30;2.10;;;12.00;90.20;;;;;;5030453;28;20469;-49
2023/04/13 11:56:25;;;;;;;3.80;1.50;;;12.00;90.20;;;;;;5048352;28;20548;-49
2023/04/13 11:58:55;;;;;;;3.33;1.50;;;11.90;90.30;;;;;;5061862;28;20616;-48
2023/04/13 12:01:26;;;;;;;5.53;2.80;;;12.00;90.00;;;;;;5063769;28;20491;-48
2023/04/13 12:04:03;;;;;;;3.20;1.40;;;12.00;90.10;;;;;;5064557;28;20442;-50
2023/04/13 12:06:46;;;;;;;3.60;1.60;;;11.90;90.20;;;;;;5067398;28;20434;-48
2023/04/13 12:09:15;;;;;;;5.37;1.73;;;11.90;90.10;;;;;;5041318;28;20499;-50
2023/04/13 12:11:52;;;;;;;5.83;1.90;;;12.00;90.10;;;;;;5028441;28;20510;-50
2023/04/13 12:14:41;;;;;;;4.87;1.60;;;11.90;90.20;;;;;;5023104;28;20466;-49
2023/04/13 12:17:14;;;;;;;3.10;1.50;;;11.90;90.60;;;;;;5063876;28;20505;-48
2023/04/13 12:19:49;;;;;;;4.10;1.63;;;11.90;90.30;;;;;;5060263;28;20481;-49
2023/04/13 12:22:19;;;;;;;3.30;2.07;;;11.90;90.40;;;;;;5051492;28;20466;-50
2023/04/13 12:24:48;;;;;;;3.23;1.50;;;12.00;90.50;;;;;;5035913;28;20849;-49
2023/04/13 12:27:18;;;;;;;3.83;1.47;;;11.90;90.30;;;;;;5028298;28;20440;-49
2023/04/13 12:29:48;;;;;;;4.37;1.63;;;12.00;90.40;;;;;;5042896;28;20462;-49
2023/04/13 12:32:18;;;;;;;2.40;1.40;;;12.00;90.40;;;;;;5049143;28;20618;-48
2023/04/13 12:34:47;;;;;;;2.73;1.63;;;12.00;90.20;;;;;;5048596;28;20980;-50
2023/04/13 12:37:16;;;;;;;2.23;1.60;;;12.00;90.20;;;;;;5084488;28;20613;-51
2023/04/13 12:39:45;;;;;;;4.00;1.50;;;12.00;89.70;;;;;;5038355;28;20475;-48
2023/04/13 12:42:14;;;;;;;3.70;1.40;;;12.00;90.30;;;;;;5040605;28;20470;-50
2023/04/13 12:44:43;;;;;;;5.67;2.00;;;12.00;89.30;;;;;;5030716;28;20466;-49
2023/04/13 12:47:12;;;;;;;2.70;1.30;;;12.00;89.40;;;;;;5041316;28;20514;-50
2023/04/13 12:49:42;;;;;;;3.67;1.40;;;12.00;89.70;;;;;;5060887;28;20841;-49
2023/04/13 12:52:11;;;;;;;8.63;1.50;;;12.00;90.00;;;;;;5032668;28;20585;-49
2023/04/13 12:54:41;;;;;;;3.80;1.90;;;12.00;89.90;;;;;;5033612;28;20541;-49
2023/04/13 12:57:11;;;;;;;4.90;1.70;;;12.10;90.10;;;;;;5065519;28;20442;-48
2023/04/13 12:59:43;;;;;;;4.27;1.77;;;12.20;90.10;;;;;;5030145;28;20494;-48
2023/04/13 13:02:12;;;;;;;4.07;1.57;;;12.30;88.70;;;;;;5041004;28;20458;-50
2023/04/13 13:04:43;;;;;;;6.27;1.90;;;12.40;86.80;;;;;;5054661;28;20982;-48
2023/04/13 13:07:12;;;;;;;4.93;1.87;;;12.50;84.80;;;;;;5051248;28;20524;-50
2023/04/13 13:09:41;;;;;;;4.03;1.60;;;12.50;83.50;;;;;;5064428;28;20540;-48
2023/04/13 13:12:10;;;;;;;4.33;1.80;;;12.60;82.20;;;;;;5066854;28;20469;-48